createdAt,value
2022-12-03T00:00:00.150Z,64.94
2022-12-03T00:02:02.293Z,66.00
2022-12-03T00:04:04.346Z,65.74
2022-12-03T00:06:06.238Z,66.07
2022-12-03T00:08:08.429Z,65.61
2022-12-03T00:10:11.076Z,65.37
2022-12-03T00:12:12.934Z,65.30
2022-12-03T00:14:15.132Z,65.61
2022-12-03T00:16:17.255Z,66.14
2022-12-03T00:18:19.066Z,65.91
2022-12-03T00:20:23.783Z,65.32
2022-12-03T00:22:25.699Z,65.33
2022-12-03T00:24:27.504Z,64.87
2022-12-03T00:26:29.799Z,65.06
2022-12-03T00:28:31.600Z,65.80
2022-12-03T00:30:33.566Z,65.21
2022-12-03T00:32:35.885Z,65.64
2022-12-03T00:34:37.667Z,64.62
2022-12-03T00:36:39.452Z,64.00
2022-12-03T00:38:41.637Z,64.59
2022-12-03T00:40:43.439Z,65.47
2022-12-03T00:42:45.243Z,64.78
2022-12-03T00:44:47.495Z,64.49
2022-12-03T00:46:49.510Z,64.17
2022-12-03T00:48:51.425Z,64.38
2022-12-03T00:50:53.546Z,64.57
2022-12-03T00:52:55.355Z,64.83
2022-12-03T00:54:57.138Z,63.52
2022-12-03T00:56:59.534Z,64.65
2022-12-03T00:59:01.322Z,64.81
2022-12-03T01:01:03.223Z,65.22
2022-12-03T01:03:05.409Z,65.11
2022-12-03T01:05:07.636Z,65.17
2022-12-03T01:07:09.498Z,65.38
2022-12-03T01:09:11.685Z,64.82
2022-12-03T01:11:31.825Z,65.30
2022-12-03T01:13:33.644Z,65.66
2022-12-03T01:15:35.836Z,64.91
2022-12-03T01:17:38.021Z,65.37
2022-12-03T01:19:46.525Z,64.23
2022-12-03T01:21:51.495Z,64.58
2022-12-03T01:23:53.338Z,64.94
2022-12-03T01:25:55.373Z,64.86
2022-12-03T01:27:57.502Z,65.41
2022-12-03T01:29:59.340Z,64.35
2022-12-03T01:32:19.776Z,64.01
2022-12-03T01:34:22.182Z,64.47
2022-12-03T01:36:24.124Z,64.58
2022-12-03T01:38:26.011Z,64.34
2022-12-03T01:40:28.154Z,64.31
2022-12-03T01:42:34.870Z,64.14
2022-12-03T01:44:39.394Z,64.31
2022-12-03T01:46:42.062Z,64.42
2022-12-03T01:48:45.231Z,65.12
2022-12-03T01:50:47.263Z,64.07
2022-12-03T01:52:49.494Z,63.83
2022-12-03T01:54:56.034Z,64.72
2022-12-03T01:56:58.316Z,63.75
2022-12-03T01:59:00.480Z,63.69
2022-12-03T02:01:07.172Z,64.18
2022-12-03T02:03:17.242Z,63.81
2022-12-03T02:05:22.817Z,64.47
2022-12-03T02:07:30.378Z,64.17
2022-12-03T02:09:32.202Z,64.05
2022-12-03T02:11:45.499Z,63.77
2022-12-03T02:13:50.402Z,62.84
2022-12-03T02:15:52.400Z,64.15
2022-12-03T02:17:55.601Z,62.77
2022-12-03T02:19:57.701Z,63.24
2022-12-03T02:22:11.898Z,63.02
2022-12-03T02:24:46.149Z,62.92
2022-12-03T02:26:47.970Z,63.81
2022-12-03T02:28:50.234Z,63.51
2022-12-03T02:30:52.193Z,63.60
2022-12-03T02:32:54.728Z,63.27
2022-12-03T02:34:56.927Z,62.97
2022-12-03T02:36:59.189Z,63.70
2022-12-03T02:39:01.893Z,63.51
2022-12-03T02:41:09.188Z,63.74
2022-12-03T02:43:12.678Z,63.20
2022-12-03T02:45:22.277Z,63.50
2022-12-03T02:47:24.586Z,61.94
2022-12-03T02:49:26.475Z,62.87
2022-12-03T02:51:28.323Z,63.29
2022-12-03T02:53:38.064Z,62.39
2022-12-03T02:55:40.639Z,62.82
2022-12-03T02:57:45.360Z,63.17
2022-12-03T02:59:47.714Z,62.12
2022-12-03T03:01:49.589Z,62.34
2022-12-03T03:03:52.554Z,63.02
2022-12-03T03:05:56.835Z,62.34
2022-12-03T03:08:00.145Z,62.92
2022-12-03T03:10:03.571Z,62.20
2022-12-03T03:12:06.142Z,62.74
2022-12-03T03:14:08.083Z,62.75
2022-12-03T03:16:10.751Z,62.55
2022-12-03T03:18:15.443Z,63.47
2022-12-03T03:20:18.121Z,63.36
2022-12-03T03:22:19.916Z,63.48
2022-12-03T03:24:22.741Z,63.02
2022-12-03T03:26:24.621Z,63.34
2022-12-03T03:28:29.093Z,62.92
2022-12-03T03:30:31.450Z,63.38
2022-12-03T03:32:34.198Z,62.70
2022-12-03T03:34:36.488Z,62.89
2022-12-03T03:36:38.882Z,62.18
2022-12-03T03:38:41.339Z,63.02
2022-12-03T03:40:44.136Z,63.47
2022-12-03T03:42:46.363Z,63.67
2022-12-03T03:44:48.330Z,62.48
2022-12-03T03:46:50.567Z,62.50
2022-12-03T03:48:52.574Z,62.92
2022-12-03T03:50:54.597Z,63.42
2022-12-03T03:52:57.675Z,62.05
2022-12-03T03:54:59.695Z,62.60
2022-12-03T03:57:01.971Z,62.98
2022-12-03T03:59:04.305Z,63.12
2022-12-03T04:01:06.667Z,62.32
2022-12-03T04:03:10.997Z,63.13
2022-12-03T04:05:21.874Z,63.08
2022-12-03T04:07:23.904Z,63.22
2022-12-03T04:09:25.679Z,63.28
2022-12-03T04:11:46.634Z,62.72
2022-12-03T04:13:48.501Z,62.06
2022-12-03T04:15:50.254Z,62.66
2022-12-03T04:18:11.866Z,63.33
2022-12-03T04:20:13.779Z,63.22
2022-12-03T04:22:34.565Z,62.59
2022-12-03T04:24:36.485Z,63.63
2022-12-03T04:26:57.286Z,62.41
2022-12-03T04:28:59.157Z,63.79
2022-12-03T04:31:21.086Z,63.86
2022-12-03T04:33:41.931Z,62.80
2022-12-03T04:35:43.834Z,62.22
2022-12-03T04:37:46.009Z,63.25
2022-12-03T04:39:48.188Z,62.71
2022-12-03T04:41:49.991Z,62.99
2022-12-03T04:44:10.795Z,63.36
2022-12-03T04:46:12.713Z,63.05
2022-12-03T04:48:14.560Z,63.24
2022-12-03T04:50:16.690Z,64.35
2022-12-03T04:52:20.478Z,64.07
2022-12-03T04:54:22.279Z,64.14
2022-12-03T04:56:24.474Z,63.51
2022-12-03T04:58:26.331Z,63.51
2022-12-03T05:00:28.127Z,63.32
2022-12-03T05:02:30.372Z,62.96
2022-12-03T05:04:32.281Z,63.84
2022-12-03T05:06:34.943Z,62.89
2022-12-03T05:08:37.119Z,62.89
2022-12-03T05:10:38.871Z,63.21
2022-12-03T05:12:40.670Z,62.70
2022-12-03T05:14:42.783Z,62.91
2022-12-03T05:16:44.594Z,62.10
2022-12-03T05:18:46.418Z,62.87
2022-12-03T05:20:53.208Z,62.36
2022-12-03T05:22:55.606Z,62.21
2022-12-03T05:24:57.386Z,62.52
2022-12-03T05:26:59.624Z,62.30
2022-12-03T05:29:01.485Z,62.82
2022-12-03T05:31:03.406Z,62.01
2022-12-03T05:33:05.873Z,62.76
2022-12-03T05:35:07.925Z,62.33
2022-12-03T05:37:09.864Z,62.95
2022-12-03T05:39:12.114Z,64.11
2022-12-03T05:41:32.547Z,63.66
2022-12-03T05:43:34.690Z,63.79
2022-12-03T05:45:39.307Z,63.25
2022-12-03T05:47:41.064Z,63.39
2022-12-03T05:49:43.205Z,62.92
2022-12-03T05:51:45.023Z,63.35
2022-12-03T05:53:46.816Z,62.57
2022-12-03T05:55:48.977Z,63.71
2022-12-03T05:57:50.868Z,63.42
2022-12-03T05:59:52.910Z,63.42
2022-12-03T06:01:55.048Z,63.05
2022-12-03T06:03:56.960Z,62.59
2022-12-03T06:05:58.831Z,62.76
2022-12-03T06:08:01.257Z,62.72
2022-12-03T06:10:04.574Z,61.94
2022-12-03T06:12:07.067Z,62.18
2022-12-03T06:14:09.269Z,62.12
2022-12-03T06:16:11.215Z,62.73
2022-12-03T06:18:13.206Z,63.18
2022-12-03T06:20:18.738Z,63.41
2022-12-03T06:22:20.603Z,62.81
2022-12-03T06:24:22.416Z,62.90
2022-12-03T06:26:24.622Z,63.05
2022-12-03T06:28:26.376Z,62.77
2022-12-03T06:30:28.203Z,62.88
2022-12-03T06:32:30.383Z,62.67
2022-12-03T06:34:32.257Z,62.46
2022-12-03T06:36:34.089Z,61.57
2022-12-03T06:38:36.284Z,62.78
2022-12-03T06:40:38.361Z,61.72
2022-12-03T06:42:40.465Z,62.01
2022-12-03T06:44:42.276Z,61.58
2022-12-03T06:46:44.146Z,61.38
2022-12-03T06:48:46.341Z,61.65
2022-12-03T06:50:48.135Z,61.66
2022-12-03T06:52:49.898Z,62.41
2022-12-03T06:54:52.561Z,61.64
2022-12-03T06:56:54.646Z,61.81
2022-12-03T06:58:56.590Z,60.96
2022-12-03T07:00:58.727Z,61.41
2022-12-03T07:03:00.593Z,61.60
2022-12-03T07:05:02.590Z,60.87
2022-12-03T07:07:04.772Z,62.14
2022-12-03T07:09:06.659Z,60.64
2022-12-03T07:11:31.256Z,60.57
2022-12-03T07:13:33.510Z,61.26
2022-12-03T07:15:35.319Z,60.97
2022-12-03T07:17:37.470Z,60.74
2022-12-03T07:19:39.239Z,61.04
2022-12-03T07:21:41.506Z,61.13
2022-12-03T07:23:43.695Z,61.01
2022-12-03T07:25:45.463Z,61.26
2022-12-03T07:27:47.298Z,61.72
2022-12-03T07:29:49.406Z,61.22
2022-12-03T07:31:51.316Z,62.15
2022-12-03T07:33:53.308Z,61.88
2022-12-03T07:35:55.445Z,61.95
2022-12-03T07:37:57.235Z,62.16
2022-12-03T07:39:59.092Z,61.46
2022-12-03T07:42:01.231Z,61.11
2022-12-03T07:44:03.062Z,63.03
2022-12-03T07:46:05.049Z,62.43
2022-12-03T07:48:07.301Z,62.11
2022-12-03T07:50:09.617Z,62.93
2022-12-03T07:52:11.404Z,62.64
2022-12-03T07:54:13.529Z,62.89
2022-12-03T07:56:15.309Z,62.46
2022-12-03T07:58:17.095Z,62.36
2022-12-03T08:00:20.063Z,62.86
2022-12-03T08:02:22.197Z,63.14
2022-12-03T08:04:24.844Z,63.43
2022-12-03T08:06:27.052Z,63.63
2022-12-03T08:08:28.985Z,62.96
2022-12-03T08:10:31.116Z,63.46
2022-12-03T08:12:41.567Z,64.19
2022-12-03T08:14:43.975Z,63.67
2022-12-03T08:16:47.982Z,64.00
2022-12-03T08:18:50.959Z,64.62
2022-12-03T08:20:52.763Z,64.66
2022-12-03T08:22:56.214Z,65.21
2022-12-03T08:24:58.750Z,64.08
2022-12-03T08:27:00.824Z,63.66
2022-12-03T08:29:09.034Z,63.97
2022-12-03T08:31:20.649Z,64.36
2022-12-03T08:33:28.609Z,64.69
2022-12-03T08:35:31.987Z,64.48
2022-12-03T08:37:36.159Z,65.44
2022-12-03T08:39:45.536Z,64.90
2022-12-03T08:42:30.830Z,64.66
2022-12-03T08:44:40.981Z,65.19
2022-12-03T08:46:43.115Z,65.50
2022-12-03T08:48:49.200Z,65.71
2022-12-03T08:50:52.466Z,65.54
2022-12-03T08:53:00.455Z,64.93
2022-12-03T08:55:30.923Z,64.87
2022-12-03T08:57:34.840Z,64.76
2022-12-03T08:59:39.394Z,64.24
2022-12-03T09:01:47.218Z,65.15
2022-12-03T09:03:51.819Z,66.19
2022-12-03T09:05:53.624Z,65.52
2022-12-03T09:07:55.887Z,64.81
2022-12-03T09:09:57.682Z,65.53
2022-12-03T09:12:02.109Z,65.10
2022-12-03T09:14:04.973Z,65.31
2022-12-03T09:16:06.779Z,65.84
2022-12-03T09:18:09.073Z,63.93
2022-12-03T09:20:11.373Z,64.40
2022-12-03T09:22:15.228Z,65.33
2022-12-03T09:24:17.263Z,66.33
2022-12-03T09:26:19.074Z,64.92
2022-12-03T09:28:21.290Z,64.18
2022-12-03T09:30:23.240Z,64.97
2022-12-03T09:32:25.607Z,64.44
2022-12-03T09:34:27.819Z,65.35
2022-12-03T09:36:29.789Z,64.90
2022-12-03T09:38:31.655Z,65.22
2022-12-03T09:40:34.580Z,64.29
2022-12-03T09:42:37.295Z,63.63
2022-12-03T09:44:39.537Z,64.65
2022-12-03T09:46:42.892Z,65.37
2022-12-03T09:48:44.790Z,64.02
2022-12-03T09:50:48.207Z,64.69
2022-12-03T09:52:51.749Z,64.52
2022-12-03T09:54:53.964Z,64.62
2022-12-03T09:56:57.678Z,65.05
2022-12-03T09:58:59.887Z,64.98
2022-12-03T10:01:01.773Z,64.94
2022-12-03T10:03:07.026Z,65.18
2022-12-03T10:05:09.292Z,63.62
2022-12-03T10:07:11.662Z,65.96
2022-12-03T10:09:17.492Z,63.39
2022-12-03T10:11:22.672Z,63.28
2022-12-03T10:13:31.188Z,63.87
2022-12-03T10:15:35.174Z,64.00
2022-12-03T10:17:36.973Z,61.94
2022-12-03T10:19:39.742Z,62.87
2022-12-03T10:21:41.566Z,61.75
2022-12-03T10:23:43.782Z,61.40
2022-12-03T10:25:58.152Z,62.33
2022-12-03T10:28:02.755Z,61.13
2022-12-03T10:30:28.974Z,60.04
2022-12-03T10:32:46.018Z,60.95
2022-12-03T10:34:47.860Z,61.92
2022-12-03T10:37:08.397Z,60.95
2022-12-03T10:39:13.880Z,60.28
2022-12-03T10:41:27.590Z,60.78
2022-12-03T10:43:29.367Z,61.21
2022-12-03T10:45:31.630Z,60.35
2022-12-03T10:47:33.737Z,62.41
2022-12-03T10:49:36.188Z,60.54
2022-12-03T10:51:39.710Z,61.32
2022-12-03T10:53:41.812Z,61.47
2022-12-03T10:55:45.311Z,61.65
2022-12-03T10:57:48.206Z,62.59
2022-12-03T10:59:50.079Z,62.33
2022-12-03T11:01:52.434Z,62.33
2022-12-03T11:04:01.225Z,62.65
2022-12-03T11:06:03.816Z,61.19
2022-12-03T11:08:05.811Z,62.12
2022-12-03T11:10:16.598Z,63.22
2022-12-03T11:12:24.825Z,63.18
2022-12-03T11:14:54.502Z,62.97
2022-12-03T11:16:56.475Z,63.85
2022-12-03T11:19:00.179Z,63.37
2022-12-03T11:21:11.209Z,63.73
2022-12-03T11:23:13.028Z,62.94
2022-12-03T11:25:31.929Z,63.92
2022-12-03T11:27:34.185Z,63.56
2022-12-03T11:29:56.027Z,62.65
2022-12-03T11:31:58.173Z,62.91
2022-12-03T11:34:18.374Z,61.48
2022-12-03T11:36:36.472Z,62.96
2022-12-03T11:38:52.260Z,62.72
2022-12-03T11:41:09.602Z,62.92
2022-12-03T11:43:11.432Z,62.93
2022-12-03T11:45:28.311Z,64.24
2022-12-03T11:47:46.198Z,63.87
2022-12-03T11:49:49.171Z,63.43
2022-12-03T11:51:51.504Z,63.17
2022-12-03T11:53:56.435Z,64.00
2022-12-03T11:56:08.592Z,64.06
2022-12-03T11:58:16.386Z,61.73
2022-12-03T12:00:23.831Z,64.84
2022-12-03T12:02:26.083Z,64.78
2022-12-03T12:04:34.486Z,64.02
2022-12-03T12:06:44.194Z,64.00
2022-12-03T12:08:52.264Z,63.97
2022-12-03T12:10:54.125Z,64.69
2022-12-03T12:12:57.350Z,65.41
2022-12-03T12:14:59.722Z,64.33
2022-12-03T12:17:03.705Z,64.33
2022-12-03T12:19:41.451Z,63.54
2022-12-03T12:21:47.775Z,63.61
2022-12-03T12:23:49.577Z,63.34
2022-12-03T12:25:54.373Z,63.61
2022-12-03T12:27:57.613Z,64.31
2022-12-03T12:30:04.896Z,65.01
2022-12-03T12:32:10.216Z,64.70
2022-12-03T12:34:12.755Z,64.33
2022-12-03T12:36:14.730Z,64.90
2022-12-03T12:38:19.632Z,65.38
2022-12-03T12:40:27.357Z,64.34
2022-12-03T12:42:32.735Z,65.88
2022-12-03T12:44:34.877Z,64.96
2022-12-03T12:46:47.699Z,65.58
2022-12-03T12:48:50.611Z,66.60
2022-12-03T12:51:14.604Z,65.02
2022-12-03T12:53:34.738Z,64.45
2022-12-03T12:55:39.038Z,64.50
2022-12-03T12:57:40.790Z,64.44
2022-12-03T12:59:43.090Z,61.90
2022-12-03T13:01:47.595Z,62.39
2022-12-03T13:03:51.908Z,63.95
2022-12-03T13:05:56.953Z,64.15
2022-12-03T13:07:58.894Z,64.11
2022-12-03T13:10:22.010Z,64.66
2022-12-03T13:12:24.334Z,64.77
2022-12-03T13:14:31.598Z,64.06
2022-12-03T13:16:33.812Z,63.76
2022-12-03T13:19:00.312Z,64.99
2022-12-03T13:21:38.357Z,64.14
2022-12-03T13:23:40.548Z,64.28
2022-12-03T13:26:01.971Z,64.18
2022-12-03T13:28:07.279Z,65.44
2022-12-03T13:30:15.663Z,65.51
2022-12-03T13:32:21.499Z,64.08
2022-12-03T13:34:28.233Z,63.74
2022-12-03T13:36:39.252Z,63.58
2022-12-03T13:38:41.138Z,64.61
2022-12-03T13:40:43.455Z,63.81
2022-12-03T13:42:46.653Z,64.76
2022-12-03T13:44:49.794Z,64.65
2022-12-03T13:46:51.967Z,64.35
2022-12-03T13:48:58.755Z,64.58
2022-12-03T13:51:40.398Z,64.67
2022-12-03T13:53:42.306Z,65.28
2022-12-03T13:55:47.568Z,65.25
2022-12-03T13:57:49.517Z,65.03
2022-12-03T13:59:52.100Z,66.46
2022-12-03T14:01:54.664Z,66.18
2022-12-03T14:03:56.937Z,64.47
2022-12-03T14:05:58.852Z,66.03
2022-12-03T14:08:04.904Z,65.35
2022-12-03T14:10:09.714Z,66.06
2022-12-03T14:12:27.292Z,65.37
2022-12-03T14:14:29.254Z,65.99
2022-12-03T14:16:31.742Z,67.18
2022-12-03T14:18:33.594Z,66.97
2022-12-03T14:20:36.542Z,66.42
2022-12-03T14:22:39.333Z,65.88
2022-12-03T14:24:41.225Z,66.24
2022-12-03T14:26:43.385Z,66.77
2022-12-03T14:28:45.187Z,66.61
2022-12-03T14:30:47.046Z,67.59
2022-12-03T14:32:49.242Z,67.78
2022-12-03T14:34:51.259Z,68.03
2022-12-03T14:36:53.011Z,67.49
2022-12-03T14:38:55.415Z,67.68
2022-12-03T14:40:57.316Z,67.97
2022-12-03T14:42:59.159Z,69.21
2022-12-03T14:45:01.286Z,68.83
2022-12-03T14:47:03.866Z,68.57
2022-12-03T14:49:05.642Z,68.26
2022-12-03T14:51:07.789Z,68.40
2022-12-03T14:53:09.570Z,69.81
2022-12-03T14:55:11.730Z,69.11
2022-12-03T14:57:15.399Z,69.22
2022-12-03T14:59:17.263Z,68.74
2022-12-03T15:01:22.157Z,69.81
2022-12-03T15:03:25.963Z,69.25
2022-12-03T15:05:28.953Z,69.36
2022-12-03T15:07:32.098Z,69.57
2022-12-03T15:09:34.243Z,69.54
2022-12-03T15:11:36.949Z,70.59
2022-12-03T15:13:42.536Z,69.08
2022-12-03T15:15:44.403Z,68.55
2022-12-03T15:17:47.341Z,69.53
2022-12-03T15:19:49.481Z,70.29
2022-12-03T15:21:51.415Z,71.12
2022-12-03T15:23:53.241Z,70.65
2022-12-03T15:25:55.455Z,70.24
2022-12-03T15:27:57.495Z,70.58
2022-12-03T15:29:59.344Z,70.60
2022-12-03T15:32:03.255Z,70.76
2022-12-03T15:34:07.941Z,70.47
2022-12-03T15:36:09.853Z,70.91
2022-12-03T15:38:12.796Z,70.19
2022-12-03T15:40:14.752Z,70.50
2022-12-03T15:42:16.903Z,70.59
2022-12-03T15:44:18.839Z,70.35
2022-12-03T15:46:20.743Z,70.59
2022-12-03T15:48:22.909Z,71.01
2022-12-03T15:50:24.992Z,71.11
2022-12-03T15:52:27.170Z,70.19
2022-12-03T15:54:28.973Z,70.83
2022-12-03T15:56:30.810Z,71.00
2022-12-03T15:58:34.589Z,71.50
2022-12-03T16:00:36.759Z,71.29
2022-12-03T16:02:38.733Z,71.25
2022-12-03T16:04:40.934Z,71.41
2022-12-03T16:06:42.770Z,71.34
2022-12-03T16:08:44.644Z,71.44
2022-12-03T16:10:46.767Z,71.90
2022-12-03T16:12:48.905Z,72.11
2022-12-03T16:14:51.498Z,72.03
2022-12-03T16:16:53.646Z,72.14
2022-12-03T16:18:55.439Z,73.06
2022-12-03T16:20:57.224Z,73.34
2022-12-03T16:22:59.704Z,71.58
2022-12-03T16:25:04.406Z,72.77
2022-12-03T16:27:06.982Z,73.08
2022-12-03T16:29:09.101Z,73.09
2022-12-03T16:31:11.107Z,72.33
2022-12-03T16:33:13.049Z,73.09
2022-12-03T16:35:15.411Z,73.08
2022-12-03T16:37:17.682Z,72.51
2022-12-03T16:39:19.801Z,72.22
2022-12-03T16:41:22.501Z,72.32
2022-12-03T16:43:24.614Z,72.65
2022-12-03T16:45:29.020Z,72.93
2022-12-03T16:47:34.216Z,73.66
2022-12-03T16:49:36.796Z,72.23
2022-12-03T16:51:38.625Z,72.77
2022-12-03T16:53:41.457Z,72.79
2022-12-03T16:55:43.965Z,72.18
2022-12-03T16:57:45.894Z,73.35
2022-12-03T16:59:48.172Z,74.17
2022-12-03T17:01:50.408Z,73.23
2022-12-03T17:03:52.302Z,73.58
2022-12-03T17:05:54.107Z,73.38
2022-12-03T17:07:56.491Z,73.31
2022-12-03T17:09:58.319Z,73.07
2022-12-03T17:12:00.503Z,73.50
2022-12-03T17:14:02.316Z,73.79
2022-12-03T17:16:05.168Z,73.94
2022-12-03T17:18:08.142Z,73.92
2022-12-03T17:20:12.568Z,73.69
2022-12-03T17:22:14.522Z,73.40
2022-12-03T17:24:16.725Z,71.77
2022-12-03T17:26:21.591Z,73.16
2022-12-03T17:28:23.710Z,72.61
2022-12-03T17:30:25.515Z,73.03
2022-12-03T17:32:30.335Z,73.23
2022-12-03T17:34:36.219Z,74.41
2022-12-03T17:36:38.058Z,75.44
2022-12-03T17:38:39.923Z,73.88
2022-12-03T17:40:42.124Z,74.36
2022-12-03T17:42:44.040Z,74.12
2022-12-03T17:44:45.857Z,74.00
2022-12-03T17:46:48.192Z,73.58
2022-12-03T17:48:50.123Z,73.67
2022-12-03T17:50:52.491Z,74.05
2022-12-03T17:52:54.501Z,74.40
2022-12-03T17:55:10.466Z,76.10
2022-12-03T17:57:14.664Z,75.38
2022-12-03T17:59:16.828Z,73.98
2022-12-03T18:01:19.018Z,74.74
2022-12-03T18:03:20.882Z,75.02
2022-12-03T18:05:26.522Z,74.58
2022-12-03T18:07:28.922Z,74.74
2022-12-03T18:09:30.833Z,74.42
2022-12-03T18:11:33.047Z,73.83
2022-12-03T18:13:35.433Z,73.54
2022-12-03T18:15:37.224Z,73.18
2022-12-03T18:17:39.050Z,74.77
2022-12-03T18:19:41.192Z,75.58
2022-12-03T18:21:43.089Z,75.51
2022-12-03T18:23:45.390Z,75.24
2022-12-03T18:25:47.231Z,74.00
2022-12-03T18:27:51.272Z,73.74
2022-12-03T18:29:53.648Z,74.72
2022-12-03T18:31:57.115Z,74.40
2022-12-03T18:33:58.944Z,75.12
2022-12-03T18:36:01.177Z,75.12
2022-12-03T18:38:03.065Z,75.28
2022-12-03T18:40:12.728Z,74.98
2022-12-03T18:42:23.008Z,74.83
2022-12-03T18:44:25.300Z,75.32
2022-12-03T18:48:51.912Z,75.54
2022-12-03T18:50:54.780Z,76.27
2022-12-03T18:52:57.272Z,76.52
2022-12-03T18:54:59.106Z,76.59
2022-12-03T18:57:01.295Z,76.40
2022-12-03T18:59:03.144Z,75.79
2022-12-03T19:01:06.141Z,76.81
2022-12-03T19:03:08.486Z,76.07
2022-12-03T19:05:10.752Z,75.94
2022-12-03T19:07:13.796Z,75.00
2022-12-03T19:09:16.193Z,74.28
2022-12-03T19:11:18.092Z,75.67
2022-12-03T19:13:20.294Z,75.62
2022-12-03T19:15:22.998Z,76.47
2022-12-03T19:17:27.107Z,75.27
2022-12-03T19:19:29.885Z,76.05
2022-12-03T19:21:33.910Z,76.54
2022-12-03T19:23:36.908Z,76.28
2022-12-03T19:25:38.962Z,76.36
2022-12-03T19:27:40.876Z,76.17
2022-12-03T19:29:43.085Z,75.62
2022-12-03T19:31:44.970Z,76.06
2022-12-03T19:33:47.234Z,75.31
2022-12-03T19:35:49.414Z,75.53
2022-12-03T19:37:51.330Z,75.05
2022-12-03T19:39:54.562Z,75.40
2022-12-03T19:41:56.982Z,75.69
2022-12-03T19:43:59.272Z,75.12
2022-12-03T19:46:08.936Z,75.54
2022-12-03T19:48:13.973Z,74.95
2022-12-03T19:50:22.644Z,74.68
2022-12-03T19:52:25.633Z,75.34
2022-12-03T19:54:27.600Z,74.73
2022-12-03T19:56:32.130Z,74.43
2022-12-03T19:58:34.757Z,73.71
2022-12-03T20:00:36.612Z,74.71
2022-12-03T20:02:38.552Z,74.27
2022-12-03T20:04:40.816Z,74.57
2022-12-03T20:06:42.827Z,75.53
2022-12-03T20:08:50.028Z,74.49
2022-12-03T20:10:52.266Z,74.83
2022-12-03T20:12:54.083Z,75.16
2022-12-03T20:14:56.017Z,74.53
2022-12-03T20:16:58.259Z,74.36
2022-12-03T20:19:03.046Z,75.54
2022-12-03T20:21:07.682Z,74.98
2022-12-03T20:23:09.849Z,74.67
2022-12-03T20:25:11.716Z,74.24
2022-12-03T20:27:17.082Z,74.68
2022-12-03T20:29:21.452Z,75.21
2022-12-03T20:31:26.255Z,76.23
2022-12-03T20:33:28.835Z,76.52
2022-12-03T20:35:30.621Z,77.21
2022-12-03T20:37:32.482Z,77.36
2022-12-03T20:39:34.701Z,76.83
2022-12-03T20:41:37.359Z,77.16
2022-12-03T20:43:39.444Z,77.33
2022-12-03T20:45:41.314Z,76.21
2022-12-03T20:47:43.216Z,74.68
2022-12-03T20:49:46.264Z,75.43
2022-12-03T20:51:49.914Z,75.81
2022-12-03T20:53:52.168Z,75.57
2022-12-03T20:55:58.029Z,76.18
2022-12-03T20:58:00.528Z,76.10
2022-12-03T21:00:03.864Z,75.67
2022-12-03T21:02:05.811Z,75.97
2022-12-03T21:04:09.461Z,75.22
2022-12-03T21:06:12.176Z,76.10
2022-12-03T21:08:14.431Z,76.99
2022-12-03T21:10:35.028Z,76.02
2022-12-03T21:12:36.827Z,75.59
2022-12-03T21:14:39.024Z,77.97
2022-12-03T21:19:04.468Z,79.37
2022-12-03T21:21:06.985Z,78.63
2022-12-03T21:23:09.652Z,77.62
2022-12-03T21:25:11.937Z,77.66
2022-12-03T21:27:19.836Z,78.08
2022-12-03T21:29:23.853Z,77.45
2022-12-03T21:31:27.447Z,77.36
2022-12-03T21:33:35.379Z,78.18
2022-12-03T21:35:52.380Z,78.10
2022-12-03T21:37:55.665Z,75.63
2022-12-03T21:39:57.596Z,77.28
2022-12-03T21:42:25.971Z,77.84
2022-12-03T21:44:22.786Z,78.58
2022-12-03T21:47:11.641Z,78.65
2022-12-03T21:48:48.644Z,77.30
2022-12-03T21:51:11.300Z,79.05
2022-12-03T21:53:13.164Z,78.29
2022-12-03T21:55:15.476Z,78.61
2022-12-03T21:57:17.654Z,79.61
2022-12-03T21:59:19.522Z,80.15
2022-12-03T22:01:24.050Z,80.63
2022-12-03T22:03:26.288Z,81.83
2022-12-03T22:05:28.153Z,82.82
2022-12-03T22:07:33.463Z,80.81
2022-12-03T22:09:36.041Z,80.29
2022-12-03T22:11:38.276Z,81.71
2022-12-03T22:13:41.498Z,81.36
2022-12-03T22:15:43.428Z,81.61
2022-12-03T22:17:45.287Z,79.69
2022-12-03T22:19:47.457Z,80.25
2022-12-03T22:21:49.399Z,80.03
2022-12-03T22:23:51.624Z,80.40
2022-12-03T22:26:02.084Z,79.63
2022-12-03T22:28:04.028Z,79.65
2022-12-03T22:30:06.446Z,80.40
2022-12-03T22:32:08.661Z,81.24
2022-12-03T22:34:10.474Z,81.58
2022-12-03T22:36:19.604Z,81.30
2022-12-03T22:38:23.573Z,81.40
2022-12-03T22:40:25.356Z,80.93
2022-12-03T22:42:27.189Z,80.00
2022-12-03T22:44:29.498Z,79.64
2022-12-03T22:46:31.597Z,80.84
2022-12-03T22:48:34.599Z,80.03
2022-12-03T22:50:47.278Z,79.99
2022-12-03T22:52:49.107Z,80.80
2022-12-03T22:54:51.328Z,81.08
2022-12-03T22:56:53.180Z,81.62
2022-12-03T22:58:55.517Z,82.60
2022-12-03T23:01:02.607Z,81.66
2022-12-03T23:03:07.821Z,81.89
2022-12-03T23:05:09.979Z,81.92
2022-12-03T23:07:11.748Z,82.16
2022-12-03T23:09:13.932Z,82.08
2022-12-03T23:11:16.147Z,81.96
2022-12-03T23:13:19.021Z,80.71
2022-12-03T23:15:22.241Z,80.95
2022-12-03T23:17:24.035Z,82.64
2022-12-03T23:19:25.880Z,83.53
2022-12-03T23:21:32.856Z,83.14
2022-12-03T23:23:34.703Z,83.26
2022-12-03T23:25:37.360Z,82.75
2022-12-03T23:27:39.576Z,83.32
2022-12-03T23:29:41.348Z,83.76
2022-12-03T23:31:43.160Z,84.70
2022-12-03T23:33:45.440Z,84.18
2022-12-03T23:35:47.396Z,83.55
2022-12-03T23:37:49.212Z,82.92
2022-12-03T23:39:51.512Z,83.24
2022-12-03T23:41:53.548Z,82.67
2022-12-03T23:43:56.460Z,83.03
2022-12-03T23:46:26.213Z,82.99
2022-12-03T23:48:29.127Z,84.38
2022-12-03T23:50:31.346Z,84.93
2022-12-03T23:52:35.713Z,83.81
2022-12-03T23:54:38.228Z,84.61
2022-12-03T23:56:41.060Z,84.10
2022-12-03T23:58:43.455Z,85.13
